Startpagina
METAR-TAF:

METAR-TAF

Vliegvelden :

Bütgenbach, België

Elsenborn

breedte: 50-28N, lengte: 006-11E, hoogte: 564 m

Actueel weer

Dit bericht is 39 minuten geleden gemaakt, om 09:25 UTC
Wind 4 kt uit het zuidzuidwesten
Temperatuur -4°C
Vochtigheid 100%
Druk 1018 hPa
Zicht: 3700 m
nevel

METAR: EBLB 190925Z AUTO 20004KT 3700 BR OVC004/// M04/M04 Q1018 YLO

Tijdstip: 11:04 (10:04 UTC)


TAF: ontbreekt

Waarnemingen en weersverwachtingen van meer dan 4000 vliegvelden (METAR en TAF).

De beschikbare stations zijn de gele en rode punten op de kaart.

Ga met uw muis naar het station om de naam te zien.

Klik dan om waarnemingen en weersverwachtingen te zien.

kaart wijzigen: klik op de groene knoppen met een zwart kruis om in te zoomen, op de groene knop met een streepje om uit te zoomen of op de groene pijlen voor aangrenzende kaarten.


METAR-TAF: